createdAt,value
2022-10-02T00:02:14.061Z,95814.94
2022-10-02T00:04:46.585Z,95813.19
2022-10-02T00:07:13.855Z,95810.50
2022-10-02T00:09:41.837Z,95807.81
2022-10-02T00:12:11.947Z,95809.66
2022-10-02T00:14:38.738Z,95810.34
2022-10-02T00:17:06.722Z,95807.09
2022-10-02T00:19:33.288Z,95810.72
2022-10-02T00:22:29.318Z,95812.47
2022-10-02T00:25:10.190Z,95821.44
2022-10-02T00:27:56.417Z,95823.72
2022-10-02T00:30:23.052Z,95820.38
2022-10-02T00:32:55.558Z,95822.34
2022-10-02T00:35:27.540Z,95815.81
2022-10-02T00:38:26.365Z,95821.38
2022-10-02T00:41:19.468Z,95815.16
2022-10-02T00:44:09.824Z,95820.84
2022-10-02T00:46:45.840Z,95815.41
2022-10-02T00:49:34.060Z,95818.19
2022-10-02T00:52:18.569Z,95824.53
2022-10-02T00:54:51.029Z,95826.47
2022-10-02T00:57:35.810Z,95824.69
2022-10-02T01:00:19.586Z,95832.69
2022-10-02T01:03:11.468Z,95832.47
2022-10-02T01:05:38.079Z,95829.19
2022-10-02T01:08:04.709Z,95829.19
2022-10-02T01:10:31.274Z,95835.03
2022-10-02T01:12:58.004Z,95840.56
2022-10-02T01:15:30.166Z,95833.19
2022-10-02T01:17:56.803Z,95840.94
2022-10-02T01:20:32.454Z,95839.72
2022-10-02T01:23:30.231Z,95832.97
2022-10-02T01:25:58.705Z,95829.84
2022-10-02T01:28:25.660Z,95825.66
2022-10-02T01:30:56.344Z,95818.44
2022-10-02T01:33:22.969Z,95815.84
2022-10-02T01:35:49.954Z,95814.44
2022-10-02T01:38:18.749Z,95805.31
2022-10-02T01:40:45.253Z,95813.06
2022-10-02T01:43:16.388Z,95811.66
2022-10-02T01:45:58.664Z,95818.03
2022-10-02T01:48:55.503Z,95828.22
2022-10-02T01:51:59.572Z,95828.50
2022-10-02T01:54:59.182Z,95838.56
2022-10-02T01:57:35.739Z,95821.88
2022-10-02T02:00:10.721Z,95829.41
2022-10-02T02:02:46.470Z,95822.00
2022-10-02T02:05:38.409Z,95819.44
2022-10-02T02:08:27.837Z,95833.22
2022-10-02T02:11:04.649Z,95825.91
2022-10-02T02:13:52.002Z,95831.22
2022-10-02T02:16:36.564Z,95833.91
2022-10-02T02:19:09.353Z,95830.28
2022-10-02T02:21:59.175Z,95835.28
2022-10-02T02:24:29.140Z,95838.66
2022-10-02T02:26:58.662Z,95831.22
2022-10-02T02:29:27.204Z,95834.81
2022-10-02T02:31:54.248Z,95842.56
2022-10-02T02:34:25.750Z,95834.94
2022-10-02T02:36:56.607Z,95829.84
2022-10-02T02:39:32.809Z,95839.53
2022-10-02T02:42:02.632Z,95841.41
2022-10-02T02:44:37.098Z,95837.44
2022-10-02T02:47:19.574Z,95835.47
2022-10-02T02:49:59.946Z,95843.09
2022-10-02T02:52:30.094Z,95829.97
2022-10-02T02:55:01.220Z,95830.63
2022-10-02T02:57:37.157Z,95831.63
2022-10-02T03:00:04.994Z,95837.53
2022-10-02T03:02:31.601Z,95836.16
2022-10-02T03:04:58.326Z,95828.63
2022-10-02T03:07:25.383Z,95824.97
2022-10-02T03:10:07.654Z,95820.41
2022-10-02T03:12:53.735Z,95825.66
2022-10-02T03:15:28.471Z,95817.09
2022-10-02T03:18:23.298Z,95820.69
2022-10-02T03:20:52.646Z,95813.50
2022-10-02T03:23:30.185Z,95817.22
2022-10-02T03:26:15.313Z,95813.63
2022-10-02T03:28:56.099Z,95810.69
2022-10-02T03:31:25.139Z,95811.41
2022-10-02T03:33:52.600Z,95816.03
2022-10-02T03:36:19.482Z,95806.63
2022-10-02T03:38:56.899Z,95807.31
2022-10-02T03:41:32.996Z,95796.31
2022-10-02T03:43:59.456Z,95799.44
2022-10-02T03:46:25.929Z,95792.75
2022-10-02T03:48:52.450Z,95789.66
2022-10-02T03:51:18.920Z,95798.22
2022-10-02T03:53:45.460Z,95801.09
2022-10-02T03:56:43.557Z,95801.91
2022-10-02T03:59:16.188Z,95800.84
2022-10-02T04:01:49.112Z,95806.03
2022-10-02T04:04:26.460Z,95805.94
2022-10-02T04:06:57.408Z,95811.28
2022-10-02T04:09:36.016Z,95798.03
2022-10-02T04:12:09.165Z,95806.44
2022-10-02T04:14:40.559Z,95797.00
2022-10-02T04:17:18.880Z,95798.38
2022-10-02T04:19:48.947Z,95806.56
2022-10-02T04:22:23.262Z,95807.66
2022-10-02T04:24:57.462Z,95807.94
2022-10-02T04:27:57.386Z,95819.34
2022-10-02T04:30:23.937Z,95813.59
2022-10-02T04:32:50.486Z,95822.81
2022-10-02T04:35:17.899Z,95822.59
2022-10-02T04:38:19.083Z,95819.94
2022-10-02T04:41:09.397Z,95811.09
2022-10-02T04:43:40.759Z,95808.75
2022-10-02T04:46:09.719Z,95811.56
2022-10-02T04:49:15.032Z,95802.19
2022-10-02T04:52:01.662Z,95806.16
2022-10-02T04:54:54.935Z,95805.84
2022-10-02T04:57:42.711Z,95801.28
2022-10-02T05:00:11.802Z,95800.81
2022-10-02T05:03:10.344Z,95795.81
2022-10-02T05:05:55.180Z,95797.94
2022-10-02T05:08:46.359Z,95802.91
2022-10-02T05:11:30.711Z,95797.44
2022-10-02T05:14:35.577Z,95784.81
2022-10-02T05:17:37.654Z,95782.75
2022-10-02T05:20:20.767Z,95787.22
2022-10-02T05:22:50.200Z,95774.34
2022-10-02T05:25:35.126Z,95780.19
2022-10-02T05:28:21.630Z,95771.63
2022-10-02T05:30:55.234Z,95794.53
2022-10-02T05:33:29.018Z,95798.25
2022-10-02T05:36:05.026Z,95805.97
2022-10-02T05:38:56.781Z,95814.66
2022-10-02T05:41:47.214Z,95811.22
2022-10-02T05:44:29.882Z,95817.03
2022-10-02T05:47:05.078Z,95822.97
2022-10-02T05:49:47.045Z,95815.88
2022-10-02T05:52:20.713Z,95802.88
2022-10-02T05:54:52.886Z,95802.78
2022-10-02T05:57:24.629Z,95803.31
2022-10-02T06:00:02.651Z,95803.38
2022-10-02T06:02:59.654Z,95796.13
2022-10-02T06:05:33.539Z,95802.16
2022-10-02T06:08:03.294Z,95801.41
2022-10-02T06:10:40.965Z,95796.53
2022-10-02T06:13:17.647Z,95783.25
2022-10-02T06:15:50.932Z,95793.78
2022-10-02T06:18:29.344Z,95804.06
2022-10-02T06:21:05.196Z,95811.22
2022-10-02T06:23:39.342Z,95811.06
2022-10-02T06:26:33.219Z,95806.88
2022-10-02T06:29:02.565Z,95799.84
2022-10-02T06:31:43.753Z,95806.59
2022-10-02T06:34:14.182Z,95810.56
2022-10-02T06:36:55.847Z,95811.78
2022-10-02T06:39:50.214Z,95815.72
2022-10-02T06:42:25.856Z,95814.53
2022-10-02T06:45:06.075Z,95798.97
2022-10-02T06:48:04.750Z,95818.41
2022-10-02T06:51:00.237Z,95817.19
2022-10-02T06:53:33.814Z,95816.00
2022-10-02T06:56:19.136Z,95820.16
2022-10-02T06:59:06.780Z,95809.81
2022-10-02T07:01:57.047Z,95824.63
2022-10-02T07:05:02.300Z,95834.31
2022-10-02T07:07:45.243Z,95837.50
2022-10-02T07:10:44.194Z,95833.06
2022-10-02T07:13:19.468Z,95828.38
2022-10-02T07:16:07.230Z,95827.16
2022-10-02T07:18:42.827Z,95834.25
2022-10-02T07:21:18.708Z,95836.75
2022-10-02T07:23:51.848Z,95832.13
2022-10-02T07:26:33.963Z,95832.22
2022-10-02T07:29:27.169Z,95834.16
2022-10-02T07:32:08.607Z,95826.94
2022-10-02T07:34:54.890Z,95819.78
2022-10-02T07:37:46.864Z,95824.41
2022-10-02T07:40:32.043Z,95834.59
2022-10-02T07:43:17.006Z,95832.97
2022-10-02T07:46:12.507Z,95833.63
2022-10-02T07:48:53.698Z,95830.66
2022-10-02T07:51:46.802Z,95827.72
2022-10-02T07:54:32.315Z,95836.41
2022-10-02T07:57:09.007Z,95840.03
2022-10-02T07:59:39.983Z,95829.59
2022-10-02T08:02:07.858Z,95825.94
2022-10-02T08:04:37.151Z,95831.59
2022-10-02T08:07:04.997Z,95831.75
2022-10-02T08:09:38.084Z,95846.88
2022-10-02T08:12:22.848Z,95843.25
2022-10-02T08:14:52.321Z,95850.66
2022-10-02T08:17:27.935Z,95852.91
2022-10-02T08:20:01.893Z,95857.47
2022-10-02T08:22:36.770Z,95855.28
2022-10-02T08:25:25.637Z,95846.28
2022-10-02T08:28:21.763Z,95838.38
2022-10-02T08:30:48.301Z,95842.56
2022-10-02T08:33:22.635Z,95839.72
2022-10-02T08:36:07.752Z,95846.97
2022-10-02T08:38:57.025Z,95840.75
2022-10-02T08:41:49.212Z,95838.81
2022-10-02T08:44:58.725Z,95837.19
2022-10-02T08:47:54.434Z,95832.34
2022-10-02T08:50:34.503Z,95817.72
2022-10-02T08:53:03.969Z,95816.81
2022-10-02T08:55:52.174Z,95822.03
2022-10-02T08:58:56.534Z,95827.31
2022-10-02T09:01:33.885Z,95826.44
2022-10-02T09:04:25.064Z,95827.75
2022-10-02T09:07:28.417Z,95825.63
2022-10-02T09:10:19.725Z,95827.41
2022-10-02T09:13:07.387Z,95823.00
2022-10-02T09:15:41.055Z,95824.81
2022-10-02T09:18:26.370Z,95820.38
2022-10-02T09:21:15.362Z,95824.28
2022-10-02T09:24:22.139Z,95824.41
2022-10-02T09:26:54.391Z,95829.41
2022-10-02T09:29:45.094Z,95825.81
2022-10-02T09:32:49.112Z,95831.03
2022-10-02T09:35:37.206Z,95832.31
2022-10-02T09:38:22.453Z,95838.13
2022-10-02T09:41:01.991Z,95833.78
2022-10-02T09:44:00.053Z,95824.81
2022-10-02T09:46:48.485Z,95817.13
2022-10-02T09:49:33.752Z,95820.16
2022-10-02T09:52:42.005Z,95827.69
2022-10-02T09:55:36.821Z,95820.91
2022-10-02T09:58:45.807Z,95812.03
2022-10-02T10:01:40.753Z,95813.47
2022-10-02T10:04:42.256Z,95814.25
2022-10-02T10:07:52.986Z,95812.25
2022-10-02T10:10:36.288Z,95805.75
2022-10-02T10:13:35.639Z,95808.03
2022-10-02T10:16:28.298Z,95816.09
2022-10-02T10:19:09.647Z,95808.94
2022-10-02T10:21:54.885Z,95808.47
2022-10-02T10:24:49.331Z,95810.75
2022-10-02T10:27:31.440Z,95804.28
2022-10-02T10:30:20.804Z,95798.97
2022-10-02T10:33:17.363Z,95800.81
2022-10-02T10:36:45.969Z,95810.75
2022-10-02T10:39:40.631Z,95810.47
2022-10-02T10:42:41.097Z,95807.00
2022-10-02T10:46:01.972Z,95797.03
2022-10-02T10:49:00.102Z,95790.84
2022-10-02T10:51:45.123Z,95796.22
2022-10-02T10:54:14.587Z,95796.25
2022-10-02T10:56:50.657Z,95794.88
2022-10-02T10:59:25.543Z,95797.56
2022-10-02T11:02:18.192Z,95797.81
2022-10-02T11:05:03.643Z,95801.59
2022-10-02T11:08:04.148Z,95800.47
2022-10-02T11:10:39.597Z,95798.59
2022-10-02T11:13:28.126Z,95796.75
2022-10-02T11:16:14.082Z,95807.25
2022-10-02T11:18:47.174Z,95802.19
2022-10-02T11:21:19.689Z,95807.56
2022-10-02T11:24:24.226Z,95809.72
2022-10-02T11:27:05.932Z,95807.50
2022-10-02T11:29:32.900Z,95798.97
2022-10-02T11:32:07.609Z,95803.25
2022-10-02T11:34:51.818Z,95786.28
2022-10-02T11:38:03.976Z,95790.59
2022-10-02T11:40:46.310Z,95794.91
2022-10-02T11:43:43.173Z,95798.41
2022-10-02T11:46:26.855Z,95796.50
2022-10-02T11:49:11.017Z,95775.78
2022-10-02T11:51:55.748Z,95782.25
2022-10-02T11:54:25.219Z,95772.59
2022-10-02T11:57:04.652Z,95775.81
2022-10-02T11:59:38.901Z,95774.19
2022-10-02T12:02:05.735Z,95766.91
2022-10-02T12:05:02.398Z,95763.44
2022-10-02T12:07:53.905Z,95763.16
2022-10-02T12:10:58.925Z,95758.03
2022-10-02T12:14:03.687Z,95747.31
2022-10-02T12:17:03.935Z,95743.00
2022-10-02T12:19:36.317Z,95749.44
2022-10-02T12:22:16.810Z,95738.97
2022-10-02T12:24:55.335Z,95733.34
2022-10-02T12:27:33.773Z,95744.09
2022-10-02T12:30:12.944Z,95734.41
2022-10-02T12:32:57.902Z,95729.47
2022-10-02T12:35:56.846Z,95731.66
2022-10-02T12:38:35.565Z,95712.84
2022-10-02T12:41:23.133Z,95710.44
2022-10-02T12:44:14.194Z,95719.03
2022-10-02T12:46:58.676Z,95730.06
2022-10-02T12:49:54.688Z,95725.19
2022-10-02T12:52:31.146Z,95717.72
2022-10-02T12:55:35.320Z,95713.69
2022-10-02T12:58:04.740Z,95717.13
2022-10-02T13:00:55.844Z,95720.09
2022-10-02T13:04:12.761Z,95717.91
2022-10-02T13:06:45.496Z,95716.09
2022-10-02T13:09:26.231Z,95709.94
2022-10-02T13:12:04.469Z,95722.06
2022-10-02T13:15:00.707Z,95720.44
2022-10-02T13:17:33.130Z,95727.13
2022-10-02T13:20:24.798Z,95723.66
2022-10-02T13:22:57.284Z,95724.75
2022-10-02T13:25:31.423Z,95719.38
2022-10-02T13:28:26.297Z,95713.94
2022-10-02T13:31:08.165Z,95716.78
2022-10-02T13:33:54.124Z,95720.03
2022-10-02T13:36:34.187Z,95721.03
2022-10-02T13:39:29.840Z,95710.19
2022-10-02T13:42:17.331Z,95713.91
2022-10-02T13:45:07.402Z,95719.06
2022-10-02T13:48:02.210Z,95725.13
2022-10-02T13:50:46.095Z,95716.84
2022-10-02T13:53:35.996Z,95723.81
2022-10-02T13:56:15.679Z,95722.50
2022-10-02T13:58:50.511Z,95716.69
2022-10-02T14:01:24.318Z,95711.50
2022-10-02T14:04:19.310Z,95704.88
2022-10-02T14:06:55.029Z,95709.25
2022-10-02T14:09:36.168Z,95698.91
2022-10-02T14:12:02.964Z,95705.47
2022-10-02T14:14:35.858Z,95710.56
2022-10-02T14:17:11.328Z,95705.25
2022-10-02T14:19:52.671Z,95696.09
2022-10-02T14:22:57.454Z,95703.78
2022-10-02T14:25:55.733Z,95699.56
2022-10-02T14:28:51.583Z,95705.19
2022-10-02T14:31:28.091Z,95697.59
2022-10-02T14:34:03.284Z,95697.81
2022-10-02T14:36:40.603Z,95693.94
2022-10-02T14:39:23.910Z,95694.94
2022-10-02T14:42:09.144Z,95693.38
2022-10-02T14:44:50.595Z,95701.94
2022-10-02T14:47:34.140Z,95682.34
2022-10-02T14:50:23.432Z,95689.69
2022-10-02T14:53:10.597Z,95692.44
2022-10-02T14:55:49.053Z,95692.47
2022-10-02T14:58:33.856Z,95691.94
2022-10-02T15:01:20.240Z,95690.59
2022-10-02T15:03:52.982Z,95704.84
2022-10-02T15:06:31.459Z,95695.66
2022-10-02T15:09:23.867Z,95701.63
2022-10-02T15:11:56.424Z,95707.28
2022-10-02T15:14:38.608Z,95714.50
2022-10-02T15:17:23.318Z,95708.06
2022-10-02T15:19:58.025Z,95702.97
2022-10-02T15:22:26.315Z,95704.06
2022-10-02T15:24:57.988Z,95709.16
2022-10-02T15:27:45.693Z,95700.00
2022-10-02T15:30:23.049Z,95714.78
2022-10-02T15:32:57.809Z,95702.94
2022-10-02T15:35:45.680Z,95713.44
2022-10-02T15:38:44.784Z,95707.53
2022-10-02T15:41:39.570Z,95705.66
2022-10-02T15:44:29.122Z,95708.63
2022-10-02T15:47:02.969Z,95702.16
2022-10-02T15:49:56.257Z,95704.84
2022-10-02T15:52:26.259Z,95705.38
2022-10-02T15:55:19.528Z,95697.31
2022-10-02T15:57:49.038Z,95708.88
2022-10-02T16:00:18.742Z,95707.00
2022-10-02T16:02:51.792Z,95710.22
2022-10-02T16:05:30.671Z,95710.75
2022-10-02T16:08:19.237Z,95716.63
2022-10-02T16:11:26.538Z,95720.34
2022-10-02T16:13:57.957Z,95717.91
2022-10-02T16:16:50.950Z,95724.31
2022-10-02T16:19:31.594Z,95725.34
2022-10-02T16:22:18.032Z,95723.25
2022-10-02T16:25:12.515Z,95720.81
2022-10-02T16:27:48.101Z,95724.81
2022-10-02T16:30:16.292Z,95725.63
2022-10-02T16:33:04.546Z,95734.16
2022-10-02T16:35:43.801Z,95726.19
2022-10-02T16:38:24.141Z,95727.53
2022-10-02T16:41:02.823Z,95721.38
2022-10-02T16:43:52.392Z,95734.00
2022-10-02T16:46:41.407Z,95729.00
2022-10-02T16:49:33.977Z,95737.09
2022-10-02T16:52:06.867Z,95733.84
2022-10-02T16:54:51.890Z,95734.41
2022-10-02T16:57:43.394Z,95737.63
2022-10-02T17:00:22.252Z,95744.34
2022-10-02T17:02:57.984Z,95743.53
2022-10-02T17:05:48.874Z,95752.97
2022-10-02T17:08:27.945Z,95749.19
2022-10-02T17:11:08.686Z,95754.03
2022-10-02T17:13:55.292Z,95765.06
2022-10-02T17:16:44.891Z,95760.19
2022-10-02T17:19:26.123Z,95766.13
2022-10-02T17:22:00.669Z,95764.75
2022-10-02T17:25:00.214Z,95774.66
2022-10-02T17:27:38.235Z,95771.38
2022-10-02T17:30:25.214Z,95773.00
2022-10-02T17:33:11.129Z,95778.69
2022-10-02T17:35:39.275Z,95790.19
2022-10-02T17:38:43.159Z,95788.63
2022-10-02T17:41:18.546Z,95791.56
2022-10-02T17:44:09.729Z,95791.00
2022-10-02T17:46:43.216Z,95793.97
2022-10-02T17:49:42.922Z,95792.84
2022-10-02T17:52:26.234Z,95804.06
2022-10-02T17:55:11.117Z,95805.13
2022-10-02T17:58:05.312Z,95801.59
2022-10-02T18:00:40.761Z,95792.50
2022-10-02T18:03:25.490Z,95797.63
2022-10-02T18:06:01.109Z,95806.19
2022-10-02T18:08:43.005Z,95799.25
2022-10-02T18:11:32.606Z,95812.56
2022-10-02T18:14:21.039Z,95810.47
2022-10-02T18:17:03.152Z,95819.34
2022-10-02T18:19:34.573Z,95810.00
2022-10-02T18:22:13.990Z,95807.25
2022-10-02T18:24:55.657Z,95804.09
2022-10-02T18:27:25.069Z,95808.41
2022-10-02T18:30:16.385Z,95799.00
2022-10-02T18:32:57.683Z,95801.25
2022-10-02T18:35:33.417Z,95800.94
2022-10-02T18:38:09.018Z,95809.00
2022-10-02T18:40:51.539Z,95812.47
2022-10-02T18:43:45.437Z,95815.31
2022-10-02T18:46:48.409Z,95813.00
2022-10-02T18:49:31.971Z,95819.28
2022-10-02T18:52:28.671Z,95806.53
2022-10-02T18:55:16.477Z,95806.78
2022-10-02T18:58:25.740Z,95803.53
2022-10-02T19:01:04.488Z,95817.75
2022-10-02T19:04:01.496Z,95816.41
2022-10-02T19:06:43.113Z,95809.38
2022-10-02T19:09:09.465Z,95822.78
2022-10-02T19:11:57.160Z,95809.41
2022-10-02T19:14:30.082Z,95813.41
2022-10-02T19:16:59.039Z,95818.03
2022-10-02T19:19:33.075Z,95819.97
2022-10-02T19:22:10.492Z,95819.72
2022-10-02T19:24:39.888Z,95822.16
2022-10-02T19:27:08.892Z,95826.50
2022-10-02T19:29:51.008Z,95820.13
2022-10-02T19:32:28.807Z,95820.75
2022-10-02T19:35:17.381Z,95825.28
2022-10-02T19:37:50.406Z,95822.06
2022-10-02T19:40:21.105Z,95828.47
2022-10-02T19:42:55.048Z,95818.69
2022-10-02T19:45:32.272Z,95813.66
2022-10-02T19:48:10.211Z,95810.53
2022-10-02T19:50:57.092Z,95811.13
2022-10-02T19:53:41.551Z,95813.81
2022-10-02T19:56:20.113Z,95810.19
2022-10-02T19:58:52.193Z,95803.16
2022-10-02T20:01:23.319Z,95797.69
2022-10-02T20:03:56.089Z,95795.13
2022-10-02T20:06:25.269Z,95805.03
2022-10-02T20:08:57.625Z,95805.09
2022-10-02T20:11:36.142Z,95811.28
2022-10-02T20:14:16.504Z,95814.44
2022-10-02T20:16:43.162Z,95805.00
2022-10-02T20:19:15.540Z,95808.97
2022-10-02T20:21:45.082Z,95803.97
2022-10-02T20:24:24.791Z,95809.03
2022-10-02T20:26:52.075Z,95800.47
2022-10-02T20:29:23.099Z,95798.69
2022-10-02T20:32:10.907Z,95798.09
2022-10-02T20:34:44.660Z,95798.31
2022-10-02T20:37:22.192Z,95803.84
2022-10-02T20:39:58.847Z,95784.25
2022-10-02T20:42:46.063Z,95797.63
2022-10-02T20:45:13.979Z,95788.34
2022-10-02T20:48:03.615Z,95811.47
2022-10-02T20:50:36.944Z,95814.69
2022-10-02T20:53:41.255Z,95817.03
2022-10-02T20:56:45.732Z,95823.88
2022-10-02T20:59:25.787Z,95813.84
2022-10-02T21:01:58.749Z,95814.97
2022-10-02T21:04:56.203Z,95815.78
2022-10-02T21:08:01.421Z,95811.09
2022-10-02T21:10:39.061Z,95820.66
2022-10-02T21:13:14.473Z,95815.22
2022-10-02T21:16:07.691Z,95820.59
2022-10-02T21:18:53.777Z,95820.84
2022-10-02T21:21:41.332Z,95811.28
2022-10-02T21:24:16.978Z,95821.66
2022-10-02T21:27:13.139Z,95815.78
2022-10-02T21:29:50.216Z,95817.59
2022-10-02T21:32:39.905Z,95823.44
2022-10-02T21:35:12.776Z,95823.09
2022-10-02T21:37:57.243Z,95820.97
2022-10-02T21:40:29.532Z,95825.59
2022-10-02T21:43:33.679Z,95826.75
2022-10-02T21:46:21.286Z,95832.00
2022-10-02T21:49:19.002Z,95832.22
2022-10-02T21:52:23.028Z,95827.00
2022-10-02T21:55:11.002Z,95828.44
2022-10-02T21:57:57.970Z,95833.78
2022-10-02T22:00:27.764Z,95828.28
2022-10-02T22:03:31.790Z,95825.84
2022-10-02T22:06:09.799Z,95822.94
2022-10-02T22:09:13.072Z,95816.31
2022-10-02T22:12:01.028Z,95810.28
2022-10-02T22:14:31.339Z,95818.41
2022-10-02T22:17:08.411Z,95817.44
2022-10-02T22:20:06.420Z,95820.91
2022-10-02T22:22:38.469Z,95821.16
2022-10-02T22:25:35.226Z,95825.84
2022-10-02T22:28:36.996Z,95833.84
2022-10-02T22:31:13.418Z,95828.53
2022-10-02T22:33:49.112Z,95831.59
2022-10-02T22:36:41.084Z,95836.38
2022-10-02T22:39:18.870Z,95831.66
2022-10-02T22:42:07.936Z,95825.06
2022-10-02T22:44:54.278Z,95825.38
2022-10-02T22:47:48.577Z,95828.78
2022-10-02T22:50:26.093Z,95833.59
2022-10-02T22:53:18.713Z,95836.88
2022-10-02T22:55:55.723Z,95841.97
2022-10-02T22:58:38.720Z,95840.75
2022-10-02T23:01:23.895Z,95841.34
2022-10-02T23:03:54.926Z,95837.44
2022-10-02T23:06:42.612Z,95840.34
2022-10-02T23:09:12.790Z,95842.69
2022-10-02T23:12:08.361Z,95844.53
2022-10-02T23:14:54.618Z,95845.63
2022-10-02T23:17:43.489Z,95851.31
2022-10-02T23:20:20.008Z,95854.94
2022-10-02T23:23:01.831Z,95855.03
2022-10-02T23:25:36.245Z,95857.25
2022-10-02T23:28:06.875Z,95860.84
2022-10-02T23:30:45.791Z,95851.94
2022-10-02T23:33:29.441Z,95854.34
2022-10-02T23:36:02.470Z,95845.47
2022-10-02T23:38:47.640Z,95843.66
2022-10-02T23:41:18.160Z,95835.53
2022-10-02T23:43:55.168Z,95843.78
2022-10-02T23:46:28.634Z,95836.03
2022-10-02T23:48:55.800Z,95839.28
2022-10-02T23:51:25.375Z,95842.06
2022-10-02T23:54:02.674Z,95837.81
2022-10-02T23:56:50.873Z,95834.44
2022-10-02T23:59:36.130Z,95834.25
